Portada
METAR-TAF:

METAR-TAF

Aeroports :

Shillong, Índia

latitud: 25-42-13N, longitud: 091-58-43E, altitud: 887 m

Observació

L'informe es va fer fa 21 hores i 48 minuts, a les 06:00 UTC
Vent 4 kt del Sud-Oest
Temperatura 29°C
Humitat 62%
Pressió 1006 hPa
Visibilitat: 5000 m
Escasses núvols a una alçada de 1000 ft
Núvols disperses a una alçada de 2000 ft
Cel ennuvolat a una alçada de 9000 ft
calitja

METAR: VEBI 170600Z 23004KT 5000 HZ FEW010 SCT020 BKN090 29/21 Q1006

Hora: 09:18 (03:48 UTC)


TAF: manca

Observacions i pronòstics meteorològics de més de 4000 aeroports (METAR i TAF).

Les estacions disponibles són els punts grocs i vermells al mapa.

Posi el ratolí al punt desitjat per veure el nom de l'estació.

Feu clic per veure les observacions i els pronòstics meteorològics.

Per canviar el mapa: feu clic els botons verds amb una creu de color negre per apropar; al botó verd amb un guió per allunyar la imatge; o en les fletxes verdes per a mapes adjacents.


METAR-TAF: